sensor_id;sensor_type;location;lat;lon;timestamp;pressure;altitude;pressure_sealevel;temperature;humidity
76753;BME280;65687;51.308;16.916;2023-04-28T00:02:30;100131.66;;;4.49;70.92
76753;BME280;65687;51.308;16.916;2023-04-28T00:07:32;100130.95;;;4.44;70.78
76753;BME280;65687;51.308;16.916;2023-04-28T00:12:33;100130.11;;;4.38;70.71
76753;BME280;65687;51.308;16.916;2023-04-28T00:17:35;100125.90;;;4.25;70.55
76753;BME280;65687;51.308;16.916;2023-04-28T00:22:36;100130.61;;;4.17;71.19
76753;BME280;65687;51.308;16.916;2023-04-28T00:27:38;100126.46;;;4.10;71.13
76753;BME280;65687;51.308;16.916;2023-04-28T00:32:40;100124.15;;;4.04;71.87
76753;BME280;65687;51.308;16.916;2023-04-28T00:37:41;100118.48;;;4.04;72.04
76753;BME280;65687;51.308;16.916;2023-04-28T00:42:42;100123.02;;;4.07;72.23
76753;BME280;65687;51.308;16.916;2023-04-28T00:47:44;100125.15;;;4.14;72.44
76753;BME280;65687;51.308;16.916;2023-04-28T00:52:46;100119.16;;;4.23;72.45
76753;BME280;65687;51.308;16.916;2023-04-28T00:57:48;100112.77;;;4.26;72.49
76753;BME280;65687;51.308;16.916;2023-04-28T01:02:51;100107.02;;;4.24;72.84
76753;BME280;65687;51.308;16.916;2023-04-28T01:07:52;100104.76;;;4.23;72.86
76753;BME280;65687;51.308;16.916;2023-04-28T01:12:54;100100.45;;;4.18;72.97
76753;BME280;65687;51.308;16.916;2023-04-28T01:17:56;100093.80;;;4.13;73.31
76753;BME280;65687;51.308;16.916;2023-04-28T01:22:58;100090.06;;;4.11;73.61
76753;BME280;65687;51.308;16.916;2023-04-28T01:28:00;100084.41;;;4.16;73.86
76753;BME280;65687;51.308;16.916;2023-04-28T01:33:02;100078.80;;;4.28;73.40
76753;BME280;65687;51.308;16.916;2023-04-28T01:38:03;100080.65;;;4.39;72.74
76753;BME280;65687;51.308;16.916;2023-04-28T01:43:05;100077.70;;;4.45;72.65
76753;BME280;65687;51.308;16.916;2023-04-28T01:48:07;100073.27;;;4.47;72.85
76753;BME280;65687;51.308;16.916;2023-04-28T01:53:08;100071.17;;;4.50;72.91
76753;BME280;65687;51.308;16.916;2023-04-28T01:58:10;100071.20;;;4.52;72.15
76753;BME280;65687;51.308;16.916;2023-04-28T02:03:11;100072.23;;;4.54;72.58
76753;BME280;65687;51.308;16.916;2023-04-28T02:08:13;100073.38;;;4.56;72.68
76753;BME280;65687;51.308;16.916;2023-04-28T02:13:14;100067.80;;;4.64;71.64
76753;BME280;65687;51.308;16.916;2023-04-28T02:18:17;100065.48;;;4.74;72.36
76753;BME280;65687;51.308;16.916;2023-04-28T02:23:18;100067.55;;;4.84;72.16
76753;BME280;65687;51.308;16.916;2023-04-28T02:28:20;100062.82;;;4.89;71.59
76753;BME280;65687;51.308;16.916;2023-04-28T02:33:21;100056.52;;;4.89;72.00
76753;BME280;65687;51.308;16.916;2023-04-28T02:38:23;100059.63;;;4.89;71.61
76753;BME280;65687;51.308;16.916;2023-04-28T02:43:24;100057.63;;;4.94;70.01
76753;BME280;65687;51.308;16.916;2023-04-28T02:48:26;100055.27;;;4.99;70.89
76753;BME280;65687;51.308;16.916;2023-04-28T02:53:28;100057.02;;;5.02;69.59
76753;BME280;65687;51.308;16.916;2023-04-28T02:58:29;100048.44;;;5.07;69.23
76753;BME280;65687;51.308;16.916;2023-04-28T03:03:31;100047.48;;;5.10;68.95
76753;BME280;65687;51.308;16.916;2023-04-28T03:08:32;100038.95;;;5.15;68.49
76753;BME280;65687;51.308;16.916;2023-04-28T03:13:34;100038.09;;;5.19;68.36
76753;BME280;65687;51.308;16.916;2023-04-28T03:18:36;100039.30;;;5.16;70.11
76753;BME280;65687;51.308;16.916;2023-04-28T03:23:37;100032.39;;;5.06;69.98
76753;BME280;65687;51.308;16.916;2023-04-28T03:28:39;100030.55;;;5.02;69.40
76753;BME280;65687;51.308;16.916;2023-04-28T03:33:40;100034.45;;;5.02;69.43
76753;BME280;65687;51.308;16.916;2023-04-28T03:38:42;100034.27;;;5.00;68.71
76753;BME280;65687;51.308;16.916;2023-04-28T03:43:44;100035.90;;;5.00;68.30
76753;BME280;65687;51.308;16.916;2023-04-28T03:48:45;100038.74;;;5.03;67.78
76753;BME280;65687;51.308;16.916;2023-04-28T03:53:47;100043.27;;;5.06;68.15
76753;BME280;65687;51.308;16.916;2023-04-28T03:58:48;100042.58;;;5.09;67.75
76753;BME280;65687;51.308;16.916;2023-04-28T04:03:50;100034.88;;;5.02;70.29
76753;BME280;65687;51.308;16.916;2023-04-28T04:08:51;100030.79;;;4.91;70.98
76753;BME280;65687;51.308;16.916;2023-04-28T04:13:53;100032.98;;;4.90;71.23
76753;BME280;65687;51.308;16.916;2023-04-28T04:18:54;100028.73;;;4.91;70.22
76753;BME280;65687;51.308;16.916;2023-04-28T04:23:56;100034.23;;;5.02;68.65
76753;BME280;65687;51.308;16.916;2023-04-28T04:28:58;100033.16;;;5.16;68.09
76753;BME280;65687;51.308;16.916;2023-04-28T04:33:59;100032.80;;;5.31;66.47
76753;BME280;65687;51.308;16.916;2023-04-28T04:39:01;100025.36;;;5.43;66.31
76753;BME280;65687;51.308;16.916;2023-04-28T04:44:03;100025.16;;;5.51;65.83
76753;BME280;65687;51.308;16.916;2023-04-28T04:49:04;100018.75;;;5.57;66.01
76753;BME280;65687;51.308;16.916;2023-04-28T04:54:06;100015.23;;;5.63;65.72
76753;BME280;65687;51.308;16.916;2023-04-28T04:59:07;100014.27;;;5.70;64.86
76753;BME280;65687;51.308;16.916;2023-04-28T05:04:09;100012.64;;;5.76;65.06
76753;BME280;65687;51.308;16.916;2023-04-28T05:09:10;100011.68;;;5.82;64.74
76753;BME280;65687;51.308;16.916;2023-04-28T05:14:12;100007.44;;;5.87;64.99
76753;BME280;65687;51.308;16.916;2023-04-28T05:19:14;99999.11;;;5.90;64.93
76753;BME280;65687;51.308;16.916;2023-04-28T05:24:16;99994.60;;;5.88;64.67
76753;BME280;65687;51.308;16.916;2023-04-28T05:29:17;99991.90;;;5.88;65.04
76753;BME280;65687;51.308;16.916;2023-04-28T05:34:19;99995.09;;;5.87;65.33
76753;BME280;65687;51.308;16.916;2023-04-28T05:39:20;99996.81;;;5.85;65.68
76753;BME280;65687;51.308;16.916;2023-04-28T05:44:22;100003.33;;;5.87;65.68
76753;BME280;65687;51.308;16.916;2023-04-28T05:49:23;100001.61;;;6.00;65.92
76753;BME280;65687;51.308;16.916;2023-04-28T05:54:25;99995.99;;;6.14;66.17
76753;BME280;65687;51.308;16.916;2023-04-28T05:59:27;99993.22;;;6.27;65.75
76753;BME280;65687;51.308;16.916;2023-04-28T06:04:30;99992.54;;;6.37;65.61
76753;BME280;65687;51.308;16.916;2023-04-28T06:09:32;99991.87;;;6.47;64.91
76753;BME280;65687;51.308;16.916;2023-04-28T06:14:33;99989.40;;;6.60;64.22
76753;BME280;65687;51.308;16.916;2023-04-28T06:19:36;99978.42;;;6.75;64.55
76753;BME280;65687;51.308;16.916;2023-04-28T06:24:38;99971.91;;;6.96;63.92
76753;BME280;65687;51.308;16.916;2023-04-28T06:29:42;99966.58;;;7.11;63.32
76753;BME280;65687;51.308;16.916;2023-04-28T06:34:43;99969.98;;;7.24;61.91
76753;BME280;65687;51.308;16.916;2023-04-28T06:39:45;99972.02;;;7.39;61.47
76753;BME280;65687;51.308;16.916;2023-04-28T06:44:46;99967.23;;;7.55;61.03
76753;BME280;65687;51.308;16.916;2023-04-28T06:49:47;99962.61;;;7.71;60.92
76753;BME280;65687;51.308;16.916;2023-04-28T06:54:50;99959.23;;;7.86;59.80
76753;BME280;65687;51.308;16.916;2023-04-28T06:59:51;99955.16;;;7.94;60.37
76753;BME280;65687;51.308;16.916;2023-04-28T07:04:53;99951.85;;;8.03;59.82
76753;BME280;65687;51.308;16.916;2023-04-28T07:09:55;99946.15;;;8.17;59.51
76753;BME280;65687;51.308;16.916;2023-04-28T07:14:57;99942.73;;;8.36;58.28
76753;BME280;65687;51.308;16.916;2023-04-28T07:19:58;99936.26;;;8.55;57.80
76753;BME280;65687;51.308;16.916;2023-04-28T07:25:00;99931.77;;;8.74;57.95
76753;BME280;65687;51.308;16.916;2023-04-28T07:30:01;99928.54;;;8.94;56.97
76753;BME280;65687;51.308;16.916;2023-04-28T07:35:03;99927.97;;;9.12;56.93
76753;BME280;65687;51.308;16.916;2023-04-28T07:40:05;99927.02;;;9.36;55.91
76753;BME280;65687;51.308;16.916;2023-04-28T07:45:07;99921.85;;;9.53;55.29
76753;BME280;65687;51.308;16.916;2023-04-28T07:50:10;99921.46;;;9.65;55.46
76753;BME280;65687;51.308;16.916;2023-04-28T07:55:12;99919.31;;;9.73;54.21
76753;BME280;65687;51.308;16.916;2023-04-28T08:00:14;99915.00;;;9.79;53.04
76753;BME280;65687;51.308;16.916;2023-04-28T08:05:15;99900.98;;;9.95;53.70
76753;BME280;65687;51.308;16.916;2023-04-28T08:10:17;99905.05;;;10.20;52.46
76753;BME280;65687;51.308;16.916;2023-04-28T08:15:19;99899.32;;;10.51;49.89
76753;BME280;65687;51.308;16.916;2023-04-28T08:20:20;99896.09;;;10.81;49.54
76753;BME280;65687;51.308;16.916;2023-04-28T08:25:22;99890.17;;;11.15;49.23
76753;BME280;65687;51.308;16.916;2023-04-28T08:30:24;99885.02;;;11.28;48.72
76753;BME280;65687;51.308;16.916;2023-04-28T08:35:25;99880.27;;;11.33;46.86
76753;BME280;65687;51.308;16.916;2023-04-28T08:40:27;99880.40;;;11.37;47.66
76753;BME280;65687;51.308;16.916;2023-04-28T08:45:39;99873.05;;;11.72;46.90
76753;BME280;65687;51.308;16.916;2023-04-28T08:50:43;99858.90;;;12.26;45.97
76753;BME280;65687;51.308;16.916;2023-04-28T08:55:50;99858.08;;;12.82;45.31
76753;BME280;65687;51.308;16.916;2023-04-28T09:00:52;99857.11;;;13.17;44.76
76753;BME280;65687;51.308;16.916;2023-04-28T09:05:55;99846.44;;;13.51;44.19
76753;BME280;65687;51.308;16.916;2023-04-28T09:11:07;99846.23;;;13.76;43.27
76753;BME280;65687;51.308;16.916;2023-04-28T09:16:09;99841.16;;;13.73;42.30
76753;BME280;65687;51.308;16.916;2023-04-28T09:21:11;99835.52;;;13.85;41.57
76753;BME280;65687;51.308;16.916;2023-04-28T09:26:14;99827.82;;;13.91;41.90
76753;BME280;65687;51.308;16.916;2023-04-28T09:31:25;99817.16;;;14.22;41.89
76753;BME280;65687;51.308;16.916;2023-04-28T09:36:29;99815.55;;;14.60;41.71
76753;BME280;65687;51.308;16.916;2023-04-28T09:41:42;99813.55;;;14.86;40.74
76753;BME280;65687;51.308;16.916;2023-04-28T09:46:45;99803.56;;;14.98;40.83
76753;BME280;65687;51.308;16.916;2023-04-28T09:51:47;99795.84;;;15.29;39.92
76753;BME280;65687;51.308;16.916;2023-04-28T09:56:49;99788.56;;;15.45;39.99
76753;BME280;65687;51.308;16.916;2023-04-28T10:01:51;99785.20;;;15.31;38.91
76753;BME280;65687;51.308;16.916;2023-04-28T10:06:53;99775.04;;;15.44;40.31
76753;BME280;65687;51.308;16.916;2023-04-28T10:11:55;99771.52;;;15.87;39.10
76753;BME280;65687;51.308;16.916;2023-04-28T10:16:57;99760.89;;;15.93;39.21
76753;BME280;65687;51.308;16.916;2023-04-28T10:27:29;99745.84;;;16.33;39.57
76753;BME280;65687;51.308;16.916;2023-04-28T10:32:31;99740.50;;;16.52;39.31
76753;BME280;65687;51.308;16.916;2023-04-28T10:38:05;99725.85;;;16.62;39.48
76753;BME280;65687;51.308;16.916;2023-04-28T10:43:10;99728.49;;;16.68;37.28
76753;BME280;65687;51.308;16.916;2023-04-28T10:48:12;99721.95;;;16.62;38.60
76753;BME280;65687;51.308;16.916;2023-04-28T10:53:13;99713.85;;;16.64;38.51
76753;BME280;65687;51.308;16.916;2023-04-28T11:08:37;99698.21;;;17.06;38.61
76753;BME280;65687;51.308;16.916;2023-04-28T11:13:38;99695.98;;;16.96;38.11
76753;BME280;65687;51.308;16.916;2023-04-28T11:18:57;99700.38;;;16.95;38.59
76753;BME280;65687;51.308;16.916;2023-04-28T11:23:59;99695.76;;;16.95;38.49
76753;BME280;65687;51.308;16.916;2023-04-28T11:29:01;99689.87;;;16.97;38.54
76753;BME280;65687;51.308;16.916;2023-04-28T11:39:07;99683.27;;;16.85;39.03
76753;BME280;65687;51.308;16.916;2023-04-28T11:44:16;99677.44;;;16.98;38.31
76753;BME280;65687;51.308;16.916;2023-04-28T11:49:18;99665.41;;;17.10;39.09
76753;BME280;65687;51.308;16.916;2023-04-28T11:54:28;99664.38;;;17.05;37.97
76753;BME280;65687;51.308;16.916;2023-04-28T11:59:31;99658.91;;;16.90;37.69
76753;BME280;65687;51.308;16.916;2023-04-28T12:04:40;99655.27;;;16.57;38.34
76753;BME280;65687;51.308;16.916;2023-04-28T12:14:56;99647.99;;;16.63;39.15
76753;BME280;65687;51.308;16.916;2023-04-28T12:20:01;99634.66;;;16.85;38.69
76753;BME280;65687;51.308;16.916;2023-04-28T12:25:08;99641.96;;;16.94;38.62
76753;BME280;65687;51.308;16.916;2023-04-28T12:35:22;99628.59;;;16.78;38.79
76753;BME280;65687;51.308;16.916;2023-04-28T12:40:23;99624.30;;;16.77;38.03
76753;BME280;65687;51.308;16.916;2023-04-28T12:45:25;99618.29;;;16.67;38.10
76753;BME280;65687;51.308;16.916;2023-04-28T12:50:26;99615.45;;;16.73;37.91
76753;BME280;65687;51.308;16.916;2023-04-28T12:55:32;99613.36;;;16.76;38.28
76753;BME280;65687;51.308;16.916;2023-04-28T13:00:34;99608.71;;;16.80;38.04
76753;BME280;65687;51.308;16.916;2023-04-28T13:05:35;99600.48;;;16.69;37.35
76753;BME280;65687;51.308;16.916;2023-04-28T13:10:37;99593.95;;;16.63;37.53
76753;BME280;65687;51.308;16.916;2023-04-28T13:15:39;99585.64;;;16.65;37.14
76753;BME280;65687;51.308;16.916;2023-04-28T13:20:41;99579.36;;;16.70;38.03
76753;BME280;65687;51.308;16.916;2023-04-28T13:25:43;99578.45;;;16.73;37.14
76753;BME280;65687;51.308;16.916;2023-04-28T13:30:44;99571.27;;;16.82;36.24
76753;BME280;65687;51.308;16.916;2023-04-28T13:35:46;99568.17;;;16.96;36.55
76753;BME280;65687;51.308;16.916;2023-04-28T13:40:48;99562.53;;;16.90;36.14
76753;BME280;65687;51.308;16.916;2023-04-28T13:45:50;99558.33;;;16.69;36.33
76753;BME280;65687;51.308;16.916;2023-04-28T13:50:54;99553.95;;;16.57;37.38
76753;BME280;65687;51.308;16.916;2023-04-28T13:55:56;99547.42;;;16.60;37.61
76753;BME280;65687;51.308;16.916;2023-04-28T14:00:58;99539.96;;;16.65;36.87
76753;BME280;65687;51.308;16.916;2023-04-28T14:05:59;99540.65;;;16.75;36.64
76753;BME280;65687;51.308;16.916;2023-04-28T14:11:02;99538.95;;;16.75;35.54
76753;BME280;65687;51.308;16.916;2023-04-28T14:16:03;99536.66;;;16.83;35.70
76753;BME280;65687;51.308;16.916;2023-04-28T14:21:05;99523.42;;;16.94;35.48
76753;BME280;65687;51.308;16.916;2023-04-28T14:26:08;99517.04;;;16.97;34.67
76753;BME280;65687;51.308;16.916;2023-04-28T14:31:10;99512.73;;;17.06;34.95
76753;BME280;65687;51.308;16.916;2023-04-28T14:36:12;99509.46;;;17.10;34.83
76753;BME280;65687;51.308;16.916;2023-04-28T14:41:14;99510.46;;;17.05;35.28
76753;BME280;65687;51.308;16.916;2023-04-28T14:46:16;99506.27;;;16.92;35.47
76753;BME280;65687;51.308;16.916;2023-04-28T14:51:19;99505.77;;;16.82;35.97
76753;BME280;65687;51.308;16.916;2023-04-28T14:56:22;99503.98;;;16.75;36.04
76753;BME280;65687;51.308;16.916;2023-04-28T15:01:23;99491.14;;;16.68;36.59
76753;BME280;65687;51.308;16.916;2023-04-28T15:06:25;99488.86;;;16.67;37.00
76753;BME280;65687;51.308;16.916;2023-04-28T15:11:27;99481.98;;;16.66;36.71
76753;BME280;65687;51.308;16.916;2023-04-28T15:16:28;99480.23;;;16.59;36.36
76753;BME280;65687;51.308;16.916;2023-04-28T15:21:30;99476.05;;;16.47;36.37
76753;BME280;65687;51.308;16.916;2023-04-28T15:26:31;99478.12;;;16.39;35.91
76753;BME280;65687;51.308;16.916;2023-04-28T15:31:33;99470.04;;;16.32;36.01
76753;BME280;65687;51.308;16.916;2023-04-28T15:36:38;99468.95;;;16.31;36.64
76753;BME280;65687;51.308;16.916;2023-04-28T15:41:40;99463.33;;;16.26;36.91
76753;BME280;65687;51.308;16.916;2023-04-28T15:46:42;99461.11;;;16.16;36.83
76753;BME280;65687;51.308;16.916;2023-04-28T15:51:44;99456.73;;;16.04;37.05
76753;BME280;65687;51.308;16.916;2023-04-28T15:56:47;99453.20;;;15.96;37.45
76753;BME280;65687;51.308;16.916;2023-04-28T16:01:48;99449.75;;;15.95;37.58
76753;BME280;65687;51.308;16.916;2023-04-28T16:06:50;99444.33;;;15.96;38.65
76753;BME280;65687;51.308;16.916;2023-04-28T16:11:53;99443.11;;;15.95;38.47
76753;BME280;65687;51.308;16.916;2023-04-28T16:16:58;99438.22;;;15.97;38.33
76753;BME280;65687;51.308;16.916;2023-04-28T16:21:59;99432.06;;;15.96;38.25
76753;BME280;65687;51.308;16.916;2023-04-28T16:27:01;99431.68;;;15.90;38.26
76753;BME280;65687;51.308;16.916;2023-04-28T16:32:04;99428.87;;;15.83;39.01
76753;BME280;65687;51.308;16.916;2023-04-28T16:37:06;99426.19;;;15.75;38.83
76753;BME280;65687;51.308;16.916;2023-04-28T16:42:08;99424.91;;;15.68;39.15
76753;BME280;65687;51.308;16.916;2023-04-28T16:47:09;99416.78;;;15.65;39.56
76753;BME280;65687;51.308;16.916;2023-04-28T16:52:11;99412.22;;;15.62;39.33
76753;BME280;65687;51.308;16.916;2023-04-28T16:57:13;99408.66;;;15.58;39.89
76753;BME280;65687;51.308;16.916;2023-04-28T17:02:14;99406.16;;;15.54;39.74
76753;BME280;65687;51.308;16.916;2023-04-28T17:07:16;99409.00;;;15.49;39.77
76753;BME280;65687;51.308;16.916;2023-04-28T17:12:17;99406.56;;;15.44;40.05
76753;BME280;65687;51.308;16.916;2023-04-28T17:17:21;99396.99;;;15.34;41.04
76753;BME280;65687;51.308;16.916;2023-04-28T17:22:22;99395.81;;;15.25;41.09
76753;BME280;65687;51.308;16.916;2023-04-28T17:27:24;99395.39;;;15.20;41.30
76753;BME280;65687;51.308;16.916;2023-04-28T17:32:26;99391.72;;;15.13;41.42
76753;BME280;65687;51.308;16.916;2023-04-28T17:37:31;99390.47;;;15.02;42.21
76753;BME280;65687;51.308;16.916;2023-04-28T17:42:33;99391.45;;;14.97;41.80
76753;BME280;65687;51.308;16.916;2023-04-28T17:47:35;99387.50;;;14.91;41.90
76753;BME280;65687;51.308;16.916;2023-04-28T17:52:38;99387.73;;;14.85;42.36
76753;BME280;65687;51.308;16.916;2023-04-28T17:57:40;99385.31;;;14.80;42.37
76753;BME280;65687;51.308;16.916;2023-04-28T18:02:42;99389.29;;;14.73;44.11
76753;BME280;65687;51.308;16.916;2023-04-28T18:07:44;99389.21;;;14.55;47.68
76753;BME280;65687;51.308;16.916;2023-04-28T18:12:45;99391.14;;;14.37;48.36
76753;BME280;65687;51.308;16.916;2023-04-28T18:17:47;99392.66;;;14.25;47.55
76753;BME280;65687;51.308;16.916;2023-04-28T18:22:49;99392.21;;;14.15;47.92
76753;BME280;65687;51.308;16.916;2023-04-28T18:27:51;99389.20;;;13.93;50.56
76753;BME280;65687;51.308;16.916;2023-04-28T18:32:54;99392.50;;;13.68;51.04
76753;BME280;65687;51.308;16.916;2023-04-28T18:37:55;99392.94;;;13.56;51.34
76753;BME280;65687;51.308;16.916;2023-04-28T18:42:57;99392.91;;;13.44;50.72
76753;BME280;65687;51.308;16.916;2023-04-28T18:48:00;99391.22;;;13.37;51.50
76753;BME280;65687;51.308;16.916;2023-04-28T18:53:03;99393.13;;;13.27;51.95
76753;BME280;65687;51.308;16.916;2023-04-28T18:58:05;99396.36;;;13.13;53.08
76753;BME280;65687;51.308;16.916;2023-04-28T19:03:07;99400.61;;;13.00;53.84
76753;BME280;65687;51.308;16.916;2023-04-28T19:08:08;99397.55;;;12.89;54.77
76753;BME280;65687;51.308;16.916;2023-04-28T19:13:10;99403.47;;;12.79;55.33
76753;BME280;65687;51.308;16.916;2023-04-28T19:18:12;99402.76;;;12.74;55.41
76753;BME280;65687;51.308;16.916;2023-04-28T19:23:13;99400.35;;;12.67;57.13
76753;BME280;65687;51.308;16.916;2023-04-28T19:28:15;99395.23;;;12.52;56.75
76753;BME280;65687;51.308;16.916;2023-04-28T19:33:17;99396.53;;;12.48;57.52
76753;BME280;65687;51.308;16.916;2023-04-28T19:38:18;99392.66;;;12.42;58.32
76753;BME280;65687;51.308;16.916;2023-04-28T19:43:20;99393.96;;;12.34;59.62
76753;BME280;65687;51.308;16.916;2023-04-28T19:48:22;99390.96;;;12.32;58.94
76753;BME280;65687;51.308;16.916;2023-04-28T19:53:23;99391.09;;;12.31;59.17
76753;BME280;65687;51.308;16.916;2023-04-28T19:58:25;99392.58;;;12.23;59.99
76753;BME280;65687;51.308;16.916;2023-04-28T20:03:26;99397.14;;;12.17;60.74
76753;BME280;65687;51.308;16.916;2023-04-28T20:08:28;99395.89;;;12.15;59.70
76753;BME280;65687;51.308;16.916;2023-04-28T20:13:29;99398.11;;;12.09;58.95
76753;BME280;65687;51.308;16.916;2023-04-28T20:18:31;99397.42;;;11.96;58.02
76753;BME280;65687;51.308;16.916;2023-04-28T20:23:33;99394.69;;;11.95;57.36
76753;BME280;65687;51.308;16.916;2023-04-28T20:28:34;99396.13;;;11.97;57.20
76753;BME280;65687;51.308;16.916;2023-04-28T20:33:36;99397.25;;;11.99;57.91
76753;BME280;65687;51.308;16.916;2023-04-28T20:38:37;99397.23;;;11.96;57.88
76753;BME280;65687;51.308;16.916;2023-04-28T20:43:39;99392.10;;;11.91;58.11
76753;BME280;65687;51.308;16.916;2023-04-28T20:48:42;99386.53;;;11.82;58.31
76753;BME280;65687;51.308;16.916;2023-04-28T20:53:43;99382.16;;;11.73;58.92
76753;BME280;65687;51.308;16.916;2023-04-28T20:58:45;99381.04;;;11.65;59.45
76753;BME280;65687;51.308;16.916;2023-04-28T21:03:47;99378.27;;;11.58;59.84
76753;BME280;65687;51.308;16.916;2023-04-28T21:08:48;99375.61;;;11.52;59.62
76753;BME280;65687;51.308;16.916;2023-04-28T21:13:50;99376.84;;;11.50;60.35
76753;BME280;65687;51.308;16.916;2023-04-28T21:18:51;99373.59;;;11.43;60.65
76753;BME280;65687;51.308;16.916;2023-04-28T21:23:54;99371.23;;;11.41;60.13
76753;BME280;65687;51.308;16.916;2023-04-28T21:28:56;99370.16;;;11.39;59.92
76753;BME280;65687;51.308;16.916;2023-04-28T21:33:57;99368.41;;;11.38;60.54
76753;BME280;65687;51.308;16.916;2023-04-28T21:38:59;99367.39;;;11.35;60.38
76753;BME280;65687;51.308;16.916;2023-04-28T21:44:00;99364.64;;;11.28;60.55
76753;BME280;65687;51.308;16.916;2023-04-28T21:49:02;99359.41;;;11.25;60.85
76753;BME280;65687;51.308;16.916;2023-04-28T21:54:04;99361.30;;;11.22;61.08
76753;BME280;65687;51.308;16.916;2023-04-28T21:59:05;99361.02;;;11.17;61.02
76753;BME280;65687;51.308;16.916;2023-04-28T22:04:07;99361.11;;;11.13;62.47
76753;BME280;65687;51.308;16.916;2023-04-28T22:09:08;99357.54;;;11.03;62.98
76753;BME280;65687;51.308;16.916;2023-04-28T22:14:10;99356.11;;;10.90;63.40
76753;BME280;65687;51.308;16.916;2023-04-28T22:19:11;99350.05;;;10.78;63.90
76753;BME280;65687;51.308;16.916;2023-04-28T22:24:13;99347.95;;;10.74;64.29
76753;BME280;65687;51.308;16.916;2023-04-28T22:29:15;99342.77;;;10.66;65.41
76753;BME280;65687;51.308;16.916;2023-04-28T22:34:16;99336.45;;;10.50;65.42
76753;BME280;65687;51.308;16.916;2023-04-28T22:39:18;99337.48;;;10.44;65.14
76753;BME280;65687;51.308;16.916;2023-04-28T22:44:20;99336.50;;;10.42;65.35
76753;BME280;65687;51.308;16.916;2023-04-28T22:49:21;99336.52;;;10.33;66.27
76753;BME280;65687;51.308;16.916;2023-04-28T22:54:26;99334.02;;;10.22;66.47
76753;BME280;65687;51.308;16.916;2023-04-28T22:59:27;99330.83;;;10.25;66.53
76753;BME280;65687;51.308;16.916;2023-04-28T23:04:29;99325.79;;;10.23;66.57
76753;BME280;65687;51.308;16.916;2023-04-28T23:09:30;99323.65;;;10.26;66.09
76753;BME280;65687;51.308;16.916;2023-04-28T23:14:33;99320.15;;;10.33;65.84
76753;BME280;65687;51.308;16.916;2023-04-28T23:19:35;99322.09;;;10.40;65.17
76753;BME280;65687;51.308;16.916;2023-04-28T23:24:39;99319.98;;;10.51;65.39
76753;BME280;65687;51.308;16.916;2023-04-28T23:29:40;99311.77;;;10.58;65.59
76753;BME280;65687;51.308;16.916;2023-04-28T23:34:42;99306.74;;;10.65;65.24
76753;BME280;65687;51.308;16.916;2023-04-28T23:39:43;99298.91;;;10.72;64.76
76753;BME280;65687;51.308;16.916;2023-04-28T23:44:45;99293.51;;;10.79;64.56
76753;BME280;65687;51.308;16.916;2023-04-28T23:49:46;99285.65;;;10.80;65.53
76753;BME280;65687;51.308;16.916;2023-04-28T23:54:48;99280.27;;;10.81;64.95
76753;BME280;65687;51.308;16.916;2023-04-28T23:59:49;99274.52;;;10.84;64.60
